createdAt,value
2018-07-13T00:01:34.748Z,81.00
2018-07-13T00:05:39.490Z,81.40
2018-07-13T00:09:43.169Z,80.90
2018-07-13T00:14:10.510Z,81.40
2018-07-13T00:18:16.272Z,81.00
2018-07-13T00:22:19.833Z,81.80
2018-07-13T00:26:23.532Z,81.60
2018-07-13T00:30:27.139Z,81.40
2018-07-13T00:34:30.674Z,80.80
2018-07-13T00:38:34.371Z,81.20
2018-07-13T00:42:40.122Z,81.80
2018-07-13T00:46:43.745Z,82.20
2018-07-13T00:50:47.475Z,81.20
2018-07-13T00:54:51.111Z,80.60
2018-07-13T00:58:56.759Z,81.40
2018-07-13T01:03:12.447Z,81.90
2018-07-13T01:07:20.804Z,80.10
2018-07-13T01:11:24.495Z,79.90
2018-07-13T01:15:28.047Z,80.80
2018-07-13T01:19:31.682Z,81.20
2018-07-13T01:23:35.230Z,80.90
2018-07-13T01:27:38.783Z,81.50
2018-07-13T01:31:42.410Z,82.40
2018-07-13T01:35:52.494Z,82.70
2018-07-13T01:39:55.998Z,82.10
2018-07-13T01:43:59.868Z,80.60
2018-07-13T01:48:03.880Z,80.60
2018-07-13T01:52:10.049Z,81.00
2018-07-13T01:56:13.606Z,81.60
2018-07-13T02:00:17.276Z,82.70
2018-07-13T02:04:21.818Z,82.20
2018-07-13T02:08:25.429Z,82.80
2018-07-13T02:12:30.118Z,83.30
2018-07-13T02:16:34.362Z,83.30
2018-07-13T02:20:38.908Z,83.70
2018-07-13T02:24:42.687Z,83.60
2018-07-13T02:28:46.250Z,83.20
2018-07-13T02:36:55.601Z,82.30
2018-07-13T02:40:59.186Z,83.20
2018-07-13T02:45:02.770Z,83.50
2018-07-13T02:49:10.102Z,83.50
2018-07-13T02:53:13.658Z,83.20
2018-07-13T02:57:17.261Z,81.70
2018-07-13T03:01:20.819Z,82.10
2018-07-13T03:05:25.290Z,83.20
2018-07-13T03:09:28.849Z,82.70
2018-07-13T03:13:32.478Z,81.90
2018-07-13T03:17:36.014Z,82.40
2018-07-13T03:21:39.625Z,82.40
2018-07-13T03:25:43.170Z,83.50
2018-07-13T03:29:46.814Z,84.00
2018-07-13T03:33:50.362Z,82.10
2018-07-13T03:37:53.957Z,82.90
2018-07-13T03:41:57.534Z,83.10
2018-07-13T03:46:01.132Z,83.10
2018-07-13T03:50:04.704Z,83.80
2018-07-13T03:54:08.266Z,84.70
2018-07-13T03:58:11.873Z,83.80
2018-07-13T04:02:15.509Z,83.10
2018-07-13T04:06:19.199Z,82.10
2018-07-13T04:10:22.945Z,82.40
2018-07-13T04:14:26.623Z,83.40
2018-07-13T04:18:30.301Z,83.50
2018-07-13T04:22:33.911Z,83.70
2018-07-13T04:26:37.724Z,83.80
2018-07-13T04:30:41.983Z,84.00
2018-07-13T04:34:45.625Z,83.30
2018-07-13T04:38:49.298Z,83.40
2018-07-13T04:42:52.993Z,83.50
2018-07-13T04:46:56.762Z,83.70
2018-07-13T04:51:04.794Z,83.10
2018-07-13T04:55:12.890Z,83.10
2018-07-13T04:59:16.622Z,83.90
2018-07-13T05:03:21.206Z,83.20
2018-07-13T05:07:24.999Z,82.90
2018-07-13T05:11:29.626Z,83.50
2018-07-13T05:15:33.259Z,83.80
2018-07-13T05:19:36.833Z,84.10
2018-07-13T05:23:40.876Z,84.00
2018-07-13T05:27:44.482Z,84.50
2018-07-13T05:31:48.297Z,84.20
2018-07-13T05:35:51.899Z,83.20
2018-07-13T05:39:55.990Z,85.20
2018-07-13T05:43:59.904Z,84.70
2018-07-13T05:48:03.616Z,85.00
2018-07-13T05:52:07.263Z,85.60
2018-07-13T05:56:10.894Z,85.70
2018-07-13T06:00:15.672Z,85.50
2018-07-13T06:04:19.470Z,85.60
2018-07-13T06:08:23.118Z,84.30
2018-07-13T06:12:26.787Z,84.00
2018-07-13T06:16:31.412Z,81.10
2018-07-13T06:20:35.051Z,79.10
2018-07-13T06:24:38.602Z,77.80
2018-07-13T06:29:04.339Z,76.70
2018-07-13T06:33:09.012Z,75.50
2018-07-13T06:37:13.719Z,74.70
2018-07-13T06:41:20.572Z,73.80
2018-07-13T06:45:24.339Z,72.70
2018-07-13T06:49:28.019Z,71.60
2018-07-13T06:53:31.741Z,69.00
2018-07-13T06:57:51.586Z,64.90
2018-07-13T07:02:01.448Z,60.20
2018-07-13T07:06:11.280Z,60.00
2018-07-13T07:10:19.659Z,57.10
2018-07-13T07:14:23.210Z,55.60
2018-07-13T07:18:26.906Z,55.50
2018-07-13T07:22:31.993Z,55.60
2018-07-13T07:26:35.779Z,54.80
2018-07-13T07:30:39.679Z,55.70
2018-07-13T07:34:55.079Z,55.70
2018-07-13T07:38:58.663Z,52.30
2018-07-13T07:43:03.659Z,52.00
2018-07-13T07:47:07.211Z,53.30
2018-07-13T07:51:10.911Z,51.70
2018-07-13T07:55:14.494Z,52.70
2018-07-13T07:59:18.419Z,52.40
2018-07-13T08:03:22.030Z,54.70
2018-07-13T08:07:35.341Z,52.00
2018-07-13T08:11:39.290Z,52.50
2018-07-13T08:15:42.966Z,51.70
2018-07-13T08:19:46.575Z,52.60
2018-07-13T08:24:00.652Z,50.80
2018-07-13T08:28:04.711Z,49.80
2018-07-13T08:32:16.027Z,49.00
2018-07-13T08:36:19.571Z,49.00
2018-07-13T08:40:23.170Z,49.60
2018-07-13T08:44:34.389Z,47.20
2018-07-13T08:48:38.186Z,47.70
2018-07-13T08:52:45.230Z,46.80
2018-07-13T08:56:48.950Z,48.50
2018-07-13T09:00:52.649Z,49.10
2018-07-13T09:04:56.355Z,48.50
2018-07-13T09:08:59.984Z,47.90
2018-07-13T09:13:03.805Z,50.30
2018-07-13T09:17:07.355Z,53.80
2018-07-13T09:21:16.400Z,52.50
2018-07-13T09:25:20.002Z,50.40
2018-07-13T09:29:23.598Z,49.80
2018-07-13T09:33:27.194Z,50.20
2018-07-13T09:37:32.863Z,49.90
2018-07-13T09:45:40.851Z,48.00
2018-07-13T09:49:45.760Z,47.90
2018-07-13T09:53:49.551Z,48.20
2018-07-13T09:57:53.057Z,50.90
2018-07-13T10:01:56.795Z,51.50
2018-07-13T10:06:04.134Z,50.70
2018-07-13T10:10:07.730Z,48.10
2018-07-13T10:14:11.373Z,46.30
2018-07-13T10:18:19.791Z,47.60
2018-07-13T10:22:29.244Z,50.00
2018-07-13T10:26:35.570Z,50.90
2018-07-13T10:30:39.481Z,52.80
2018-07-13T10:34:43.518Z,53.30
2018-07-13T10:38:47.170Z,52.60
2018-07-13T10:42:52.242Z,51.60
2018-07-13T10:46:59.979Z,51.70
2018-07-13T10:51:06.663Z,52.60
2018-07-13T10:55:11.075Z,50.80
2018-07-13T10:59:14.662Z,51.70
2018-07-13T11:03:18.224Z,52.80
2018-07-13T11:07:21.988Z,51.00
2018-07-13T11:11:25.751Z,51.10
2018-07-13T11:15:29.423Z,48.00
2018-07-13T11:19:40.282Z,51.70
2018-07-13T11:23:43.910Z,49.00
2018-07-13T11:27:47.506Z,47.70
2018-07-13T11:31:51.053Z,48.50
2018-07-13T11:35:54.682Z,50.60
2018-07-13T11:40:02.730Z,51.50
2018-07-13T11:44:06.438Z,49.70
2018-07-13T11:48:11.100Z,49.20
2018-07-13T11:52:14.923Z,49.10
2018-07-13T11:56:18.473Z,49.10
2018-07-13T12:00:25.407Z,49.90
2018-07-13T12:04:32.666Z,48.30
2018-07-13T12:08:40.483Z,51.30
2018-07-13T12:12:44.042Z,49.40
2018-07-13T12:16:52.368Z,50.20
2018-07-13T12:20:56.561Z,46.70
2018-07-13T12:25:00.087Z,49.10
2018-07-13T12:29:09.833Z,49.10
2018-07-13T12:33:15.691Z,50.40
2018-07-13T12:37:22.943Z,48.30
2018-07-13T12:45:30.228Z,50.40
2018-07-13T12:49:34.714Z,50.00
2018-07-13T12:53:40.685Z,49.50
2018-07-13T12:57:48.066Z,49.80
2018-07-13T13:01:51.697Z,49.20
2018-07-13T13:05:55.326Z,48.10
2018-07-13T13:09:59.370Z,48.60
2018-07-13T13:14:05.283Z,46.80
2018-07-13T13:18:08.847Z,46.80
2018-07-13T13:22:16.212Z,46.20
2018-07-13T13:26:20.306Z,49.10
2018-07-13T13:30:24.954Z,50.30
2018-07-13T13:34:32.266Z,51.70
2018-07-13T13:42:39.974Z,51.40
2018-07-13T13:46:44.526Z,48.20
2018-07-13T13:50:48.274Z,48.60
2018-07-13T13:54:54.966Z,46.90
2018-07-13T13:58:58.546Z,49.60
2018-07-13T14:03:05.299Z,45.90
2018-07-13T14:07:08.935Z,48.90
2018-07-13T14:11:12.630Z,47.50
2018-07-13T14:15:19.970Z,49.10
2018-07-13T14:19:24.117Z,49.00
2018-07-13T14:23:28.930Z,48.70
2018-07-13T14:27:32.441Z,48.30
2018-07-13T14:31:42.456Z,46.70
2018-07-13T14:35:47.330Z,49.60
2018-07-13T14:39:50.946Z,49.20
2018-07-13T14:43:56.584Z,51.20
2018-07-13T14:48:01.034Z,48.90
2018-07-13T14:52:05.452Z,46.70
2018-07-13T14:56:12.570Z,47.20
2018-07-13T15:00:22.987Z,47.50
2018-07-13T15:04:27.718Z,46.10
2018-07-13T15:08:32.505Z,46.10
2018-07-13T15:12:37.021Z,51.10
2018-07-13T15:16:40.598Z,48.40
2018-07-13T15:20:44.447Z,48.60
2018-07-13T15:24:48.980Z,47.80
2018-07-13T15:28:52.795Z,47.60
2018-07-13T15:32:56.437Z,49.80
2018-07-13T15:37:00.164Z,47.00
2018-07-13T15:41:03.735Z,46.10
2018-07-13T15:45:08.683Z,49.30
2018-07-13T15:49:12.452Z,47.50
2018-07-13T15:57:21.153Z,50.30
2018-07-13T16:01:25.599Z,46.50
2018-07-13T16:09:36.150Z,46.60
2018-07-13T16:13:41.182Z,45.40
2018-07-13T16:17:44.742Z,46.90
2018-07-13T16:21:52.590Z,47.20
2018-07-13T16:25:56.796Z,45.10
2018-07-13T16:30:00.342Z,48.60
2018-07-13T16:34:04.702Z,46.80
2018-07-13T16:38:11.731Z,48.20
2018-07-13T16:42:15.568Z,50.00
2018-07-13T16:46:19.128Z,52.10
2018-07-13T16:50:22.808Z,49.40
2018-07-13T16:54:27.101Z,50.10
2018-07-13T16:58:31.042Z,49.50
2018-07-13T17:02:34.748Z,50.20
2018-07-13T17:06:38.376Z,49.60
2018-07-13T17:10:42.006Z,48.90
2018-07-13T17:14:46.035Z,49.80
2018-07-13T17:18:51.631Z,50.00
2018-07-13T17:22:58.259Z,49.10
2018-07-13T17:27:01.868Z,50.20
2018-07-13T17:31:05.595Z,50.40
2018-07-13T17:35:12.468Z,51.10
2018-07-13T17:43:19.338Z,53.90
2018-07-13T17:51:29.661Z,50.70
2018-07-13T17:55:34.846Z,51.00
2018-07-13T17:59:38.410Z,52.00
2018-07-13T18:03:45.783Z,52.60
2018-07-13T18:07:50.353Z,52.60
2018-07-13T18:11:55.411Z,53.90
2018-07-13T18:16:00.282Z,53.00
2018-07-13T18:20:11.571Z,52.40
2018-07-13T18:24:16.859Z,52.80
2018-07-13T18:28:20.455Z,53.10
2018-07-13T18:32:24.000Z,53.30
2018-07-13T18:36:31.846Z,53.20
2018-07-13T18:40:36.414Z,52.60
2018-07-13T18:44:40.073Z,52.30
2018-07-13T18:48:43.662Z,52.70
2018-07-13T18:52:48.270Z,52.10
2018-07-13T18:57:00.426Z,53.60
2018-07-13T19:01:04.701Z,53.10
2018-07-13T19:05:08.215Z,52.60
2018-07-13T19:09:15.831Z,54.00
2018-07-13T19:13:19.593Z,54.30
2018-07-13T19:17:23.406Z,53.90
2018-07-13T19:21:27.040Z,53.80
2018-07-13T19:25:33.729Z,53.30
2018-07-13T19:29:37.311Z,54.60
2018-07-13T19:33:41.110Z,55.70
2018-07-13T19:37:47.570Z,55.80
2018-07-13T19:41:51.396Z,55.80
2018-07-13T19:45:56.063Z,56.30
2018-07-13T19:50:00.569Z,57.70
2018-07-13T19:54:07.663Z,59.10
2018-07-13T20:02:49.637Z,58.60
2018-07-13T20:06:53.323Z,59.60
2018-07-13T20:10:59.135Z,60.50
2018-07-13T20:15:04.002Z,60.80
2018-07-13T20:19:08.409Z,61.00
2018-07-13T20:23:12.179Z,61.30
2018-07-13T20:27:19.525Z,60.50
2018-07-13T20:31:24.652Z,61.40
2018-07-13T20:35:28.290Z,62.10
2018-07-13T20:39:33.784Z,62.50
2018-07-13T20:43:37.363Z,62.40
2018-07-13T20:47:41.514Z,62.60
2018-07-13T20:51:47.223Z,63.30
2018-07-13T20:55:51.133Z,65.00
2018-07-13T20:59:54.678Z,63.60
2018-07-13T21:03:58.391Z,63.60
2018-07-13T21:08:03.998Z,65.10
2018-07-13T21:12:07.734Z,64.20
2018-07-13T21:16:11.276Z,64.50
2018-07-13T21:20:20.223Z,65.00
2018-07-13T21:24:24.644Z,65.70
2018-07-13T21:28:28.216Z,66.30
2018-07-13T21:32:34.939Z,67.10
2018-07-13T21:40:48.959Z,67.80
2018-07-13T21:44:53.070Z,68.30
2018-07-13T21:49:07.956Z,68.40
2018-07-13T21:53:19.470Z,68.40
2018-07-13T21:57:24.872Z,68.90
2018-07-13T22:01:28.466Z,69.30
2018-07-13T22:05:35.545Z,69.20
2018-07-13T22:09:39.126Z,69.80
2018-07-13T22:13:42.682Z,69.60
2018-07-13T22:17:46.662Z,69.30
2018-07-13T22:21:51.623Z,70.30
2018-07-13T22:25:57.683Z,68.90
2018-07-13T22:30:05.318Z,69.60
2018-07-13T22:34:08.930Z,70.20
2018-07-13T22:38:12.520Z,70.60
2018-07-13T22:42:17.386Z,70.60
2018-07-13T22:46:21.892Z,69.70
2018-07-13T22:50:25.593Z,69.90
2018-07-13T22:54:29.390Z,71.70
2018-07-13T22:58:39.402Z,69.20
2018-07-13T23:02:42.978Z,70.30
2018-07-13T23:06:52.541Z,69.70
2018-07-13T23:10:56.083Z,70.80
2018-07-13T23:14:59.646Z,71.00
2018-07-13T23:19:06.462Z,71.20
2018-07-13T23:27:13.474Z,71.80
2018-07-13T23:31:17.080Z,71.80
2018-07-13T23:35:20.974Z,72.40
2018-07-13T23:39:24.848Z,72.70
2018-07-13T23:43:28.350Z,73.20
2018-07-13T23:47:39.652Z,73.30
2018-07-13T23:51:43.233Z,73.00
2018-07-13T23:55:46.818Z,72.00
2018-07-13T23:59:52.374Z,72.00
